Cachari, Argentina
Current Conditions -  °F | °C
As of 10:00 AM on Saturday 20 Dec 2014 (Local Time) from SAEZ Reporting Station
Light Rain Light Rain  
Wind Chill: 68°   Ceiling: 7000
Heat Index: 68°   Visibility: 6mi
Dew Point: 63°   Wind: 5mph
Humidity: 83%   Direction: 110°ESE
Pressure: 29.65"   Gusts: NA
Location:  36.4°S, 59.53°W
Report Text: SAEZ 201300Z 11004KT 9000 -RA SCT035 OVC070 20/17 Q1004 RETS
Loading
Personal Weather Stations






























Interactive Weather Map New forecast layout! Learn more

10-Day Weather Forecast

Advertisements
Track Severe Weather on mobile